createdAt,value
2023-03-31T00:00:41.503Z,951.0630
2023-03-31T00:01:42.288Z,951.0674
2023-03-31T00:02:43.124Z,951.0522
2023-03-31T00:03:44.867Z,951.0326
2023-03-31T00:04:44.293Z,951.0319
2023-03-31T00:05:45.019Z,951.0374
2023-03-31T00:06:45.820Z,951.0363
2023-03-31T00:07:46.537Z,951.0548
2023-03-31T00:08:47.236Z,951.0518
2023-03-31T00:09:47.996Z,951.0555
2023-03-31T00:10:48.753Z,951.0541
2023-03-31T00:11:49.379Z,951.0630
2023-03-31T00:12:50.155Z,951.0737
2023-03-31T00:14:51.480Z,951.0441
2023-03-31T00:15:54.367Z,951.0330
2023-03-31T00:16:52.996Z,951.0704
2023-03-31T00:17:53.873Z,951.0559
2023-03-31T00:18:54.670Z,951.0700
2023-03-31T00:19:55.596Z,951.0933
2023-03-31T00:20:56.520Z,951.0748
2023-03-31T00:21:58.181Z,951.0555
2023-03-31T00:22:58.968Z,951.0852
2023-03-31T00:23:59.779Z,951.0985
2023-03-31T00:25:00.569Z,951.0837
2023-03-31T00:26:01.337Z,951.0797
2023-03-31T00:27:02.501Z,951.0482
2023-03-31T00:28:03.284Z,951.0544
2023-03-31T00:29:04.078Z,951.0437
2023-03-31T00:30:04.887Z,951.0056
2023-03-31T00:31:05.517Z,951.0289
2023-03-31T00:32:06.433Z,951.0296
2023-03-31T00:33:07.469Z,951.0555
2023-03-31T00:34:08.322Z,951.0845
2023-03-31T00:35:09.077Z,951.0700
2023-03-31T00:36:09.964Z,951.0493
2023-03-31T00:37:10.799Z,951.0167
2023-03-31T00:38:11.792Z,951.0174
2023-03-31T00:39:12.549Z,951.0104
2023-03-31T00:40:13.369Z,951.0467
2023-03-31T00:41:14.102Z,951.0663
2023-03-31T00:42:14.819Z,950.9874
2023-03-31T00:43:15.633Z,950.8978
2023-03-31T00:44:16.403Z,950.8163
2023-03-31T00:45:17.318Z,950.8589
2023-03-31T00:46:18.170Z,950.9604
2023-03-31T00:47:19.045Z,950.8267
2023-03-31T00:48:19.800Z,950.7267
2023-03-31T00:49:20.576Z,950.7359
2023-03-31T00:50:21.369Z,950.7333
2023-03-31T00:51:22.112Z,950.6889
2023-03-31T00:52:22.846Z,950.6985
2023-03-31T00:53:23.634Z,950.7489
2023-03-31T00:54:24.391Z,950.8019
2023-03-31T00:55:25.134Z,950.8630
2023-03-31T00:56:25.882Z,950.8507
2023-03-31T00:57:26.674Z,950.8107
2023-03-31T00:58:27.389Z,950.7748
2023-03-31T00:59:28.108Z,950.7378
2023-03-31T01:00:28.966Z,950.7059
2023-03-31T01:01:29.724Z,950.7000
2023-03-31T01:02:30.535Z,950.7115
2023-03-31T01:03:31.261Z,950.6937
2023-03-31T01:04:32.020Z,950.6644
2023-03-31T01:05:32.941Z,950.6307
2023-03-31T01:06:33.644Z,950.6300
2023-03-31T01:07:34.403Z,950.6252
2023-03-31T01:08:35.160Z,950.5970
2023-03-31T01:09:35.931Z,950.5889
2023-03-31T01:10:36.917Z,950.5734
2023-03-31T01:11:37.705Z,950.5615
2023-03-31T01:12:38.464Z,950.5300
2023-03-31T01:13:39.232Z,950.5163
2023-03-31T01:14:40.062Z,950.5186
2023-03-31T01:15:40.730Z,950.5186
2023-03-31T01:16:41.618Z,950.5096
2023-03-31T01:17:42.827Z,950.5115
2023-03-31T01:18:43.997Z,950.4963
2023-03-31T01:19:44.912Z,950.4963
2023-03-31T01:20:45.675Z,950.5126
2023-03-31T01:21:46.444Z,950.5030
2023-03-31T01:22:47.214Z,950.4933
2023-03-31T01:23:48.024Z,950.4904
2023-03-31T01:24:48.775Z,950.4615
2023-03-31T01:25:49.578Z,950.4378
2023-03-31T01:26:50.386Z,950.4159
2023-03-31T01:27:51.329Z,950.4008
2023-03-31T01:28:52.609Z,950.3911
2023-03-31T01:29:53.332Z,950.3704
2023-03-31T01:30:54.113Z,950.3478
2023-03-31T01:31:54.790Z,950.3563
2023-03-31T01:32:55.561Z,950.3544
2023-03-31T01:33:57.134Z,950.3419
2023-03-31T01:34:58.029Z,950.3093
2023-03-31T01:35:58.891Z,950.2518
2023-03-31T01:36:59.693Z,950.2004
2023-03-31T01:38:00.434Z,950.1552
2023-03-31T01:39:01.172Z,950.1311
2023-03-31T01:40:01.924Z,950.1278
2023-03-31T01:41:02.701Z,950.1185
2023-03-31T01:42:03.505Z,950.1118
2023-03-31T01:43:04.281Z,950.1104
2023-03-31T01:44:05.046Z,950.1107
2023-03-31T01:45:05.793Z,950.0930
2023-03-31T01:46:06.803Z,950.0593
2023-03-31T01:47:08.729Z,950.0300
2023-03-31T01:48:09.425Z,950.0349
2023-03-31T01:49:10.227Z,950.0507
2023-03-31T01:50:10.971Z,950.0315
2023-03-31T01:51:11.721Z,950.0297
2023-03-31T01:52:12.501Z,950.0466
2023-03-31T01:53:13.321Z,950.0378
2023-03-31T01:54:14.102Z,950.0219
2023-03-31T01:55:14.904Z,950.0048
2023-03-31T01:56:15.666Z,950.0059
2023-03-31T01:57:16.631Z,950.0118
2023-03-31T01:58:17.588Z,950.0308
2023-03-31T01:59:18.479Z,950.0349
2023-03-31T02:00:19.290Z,950.0211
2023-03-31T02:01:20.062Z,950.0070
2023-03-31T02:02:20.878Z,950.0186
2023-03-31T02:03:21.652Z,949.9526
2023-03-31T02:04:22.668Z,949.9289
2023-03-31T02:05:23.333Z,949.9648
2023-03-31T02:06:24.052Z,949.9781
2023-03-31T02:07:24.782Z,949.9426
2023-03-31T02:08:25.532Z,949.8986
2023-03-31T02:09:26.248Z,949.8726
2023-03-31T02:10:27.018Z,949.8237
2023-03-31T02:11:27.806Z,949.7867
2023-03-31T02:12:28.663Z,949.7422
2023-03-31T02:13:29.426Z,949.7007
2023-03-31T02:14:30.194Z,949.6592
2023-03-31T02:15:31.101Z,949.6215
2023-03-31T02:16:31.953Z,949.6348
2023-03-31T02:17:32.963Z,949.6185
2023-03-31T02:18:33.776Z,949.5848
2023-03-31T02:19:34.603Z,949.5807
2023-03-31T02:20:35.374Z,949.5585
2023-03-31T02:21:36.239Z,949.5511
2023-03-31T02:22:37.114Z,949.5482
2023-03-31T02:23:37.866Z,949.5193
2023-03-31T02:24:38.717Z,949.4266
2023-03-31T02:25:39.489Z,949.3541
2023-03-31T02:26:40.228Z,949.3218
2023-03-31T02:27:41.021Z,949.3011
2023-03-31T02:28:41.896Z,949.3137
2023-03-31T02:29:42.603Z,949.3270
2023-03-31T02:30:43.385Z,949.3134
2023-03-31T02:31:44.187Z,949.2867
2023-03-31T02:32:44.930Z,949.2830
2023-03-31T02:33:45.683Z,949.2314
2023-03-31T02:34:46.427Z,949.2230
2023-03-31T02:35:47.254Z,949.2085
2023-03-31T02:36:47.991Z,949.2022
2023-03-31T02:37:48.773Z,949.1800
2023-03-31T02:38:49.620Z,949.1970
2023-03-31T02:39:50.409Z,949.1878
2023-03-31T02:40:51.190Z,949.1570
2023-03-31T02:41:52.002Z,949.0804
2023-03-31T02:42:52.771Z,949.0378
2023-03-31T02:43:53.437Z,949.0204
2023-03-31T02:44:54.224Z,948.9418
2023-03-31T02:45:55.223Z,948.9807
2023-03-31T02:46:56.024Z,949.0074
2023-03-31T02:47:56.840Z,949.0229
2023-03-31T02:48:57.503Z,949.0308
2023-03-31T02:49:58.629Z,948.9996
2023-03-31T02:50:59.495Z,949.0178
2023-03-31T02:52:00.281Z,948.9889
2023-03-31T02:53:01.030Z,948.9404
2023-03-31T02:54:01.846Z,948.8893
2023-03-31T02:55:02.627Z,948.7511
2023-03-31T02:56:03.590Z,948.7393
2023-03-31T02:57:05.197Z,948.7589
2023-03-31T02:58:05.966Z,948.7411
2023-03-31T02:59:06.722Z,948.7448
2023-03-31T03:00:07.459Z,948.6648
2023-03-31T03:01:08.262Z,948.6726
2023-03-31T03:02:09.123Z,948.7167
2023-03-31T03:03:09.967Z,948.7037
2023-03-31T03:04:11.001Z,948.6771
2023-03-31T03:05:11.636Z,948.6115
2023-03-31T03:06:12.419Z,948.5381
2023-03-31T03:07:13.417Z,948.5078
2023-03-31T03:08:14.232Z,948.5252
2023-03-31T03:09:15.002Z,948.4815
2023-03-31T03:10:15.770Z,948.4363
2023-03-31T03:11:16.602Z,948.4685
2023-03-31T03:12:17.426Z,948.4448
2023-03-31T03:13:18.208Z,948.4022
2023-03-31T03:14:18.995Z,948.2466
2023-03-31T03:15:19.725Z,948.1815
2023-03-31T03:16:20.713Z,948.1241
2023-03-31T03:17:21.455Z,948.0989
2023-03-31T03:18:22.209Z,948.0619
2023-03-31T03:19:23.028Z,948.0118
2023-03-31T03:20:23.804Z,947.9526
2023-03-31T03:21:24.492Z,947.9481
2023-03-31T03:22:25.364Z,947.8548
2023-03-31T03:23:26.166Z,947.7652
2023-03-31T03:24:26.953Z,947.6556
2023-03-31T03:25:27.761Z,947.5700
2023-03-31T03:26:28.610Z,947.5589
2023-03-31T03:27:29.465Z,947.6096
2023-03-31T03:28:30.295Z,947.6552
2023-03-31T03:29:31.637Z,947.6204
2023-03-31T03:30:32.464Z,947.5511
2023-03-31T03:31:33.085Z,947.5330
2023-03-31T03:32:33.986Z,947.5226
2023-03-31T03:33:34.822Z,947.4822
2023-03-31T03:34:35.536Z,947.4448
2023-03-31T03:35:36.353Z,947.4393
2023-03-31T03:36:37.162Z,947.4611
2023-03-31T03:37:37.922Z,947.4285
2023-03-31T03:38:38.704Z,947.3859
2023-03-31T03:39:39.468Z,947.2715
2023-03-31T03:40:40.192Z,947.2393
2023-03-31T03:41:41.176Z,947.2119
2023-03-31T03:42:41.996Z,947.1837
2023-03-31T03:43:42.777Z,947.1367
2023-03-31T03:44:43.524Z,947.0826
2023-03-31T03:45:44.293Z,947.0845
2023-03-31T03:46:45.100Z,946.9993
2023-03-31T03:47:46.184Z,946.9226
2023-03-31T03:48:47.063Z,946.8859
2023-03-31T03:49:47.827Z,946.8389
2023-03-31T03:50:48.544Z,946.7900
2023-03-31T03:51:49.323Z,946.7108
2023-03-31T03:52:50.056Z,946.6452
2023-03-31T03:53:50.837Z,946.5815
2023-03-31T03:54:51.601Z,946.5363
2023-03-31T03:55:52.442Z,946.5319
2023-03-31T03:56:53.396Z,946.5630
2023-03-31T03:57:54.285Z,946.5607
2023-03-31T03:58:55.088Z,946.5511
2023-03-31T03:59:55.864Z,946.5604
2023-03-31T04:00:56.673Z,946.5570
2023-03-31T04:01:57.537Z,946.5670
2023-03-31T04:02:58.482Z,946.5856
2023-03-31T04:03:59.340Z,946.6178
2023-03-31T04:05:00.296Z,946.6008
2023-03-31T04:06:01.310Z,946.5322
2023-03-31T04:07:02.166Z,946.4930
2023-03-31T04:08:04.452Z,946.4507
2023-03-31T04:20:42.986Z,946.3178
2023-03-31T04:20:42.986Z,946.3200
2023-03-31T04:20:45.686Z,946.2800
2023-03-31T04:21:46.433Z,946.3178
2023-03-31T04:22:59.592Z,946.3041
2023-03-31T04:24:00.470Z,946.3293
2023-03-31T04:25:01.328Z,946.3211
2023-03-31T04:26:02.092Z,946.3492
2023-03-31T04:27:03.228Z,946.3652
2023-03-31T04:28:04.352Z,946.2971
2023-03-31T04:29:05.805Z,946.2559
2023-03-31T04:30:06.744Z,946.1555
2023-03-31T04:31:07.537Z,946.0908
2023-03-31T04:32:08.510Z,946.0437
2023-03-31T04:33:09.730Z,946.0363
2023-03-31T04:34:10.554Z,945.9926
2023-03-31T04:35:11.418Z,945.9771
2023-03-31T04:36:12.270Z,945.9733
2023-03-31T04:37:13.153Z,945.9467
2023-03-31T04:38:14.032Z,945.9089
2023-03-31T04:39:14.926Z,945.8281
2023-03-31T04:40:15.689Z,945.7734
2023-03-31T04:41:16.432Z,945.7811
2023-03-31T04:42:17.207Z,945.8082
2023-03-31T04:43:17.946Z,945.7437
2023-03-31T04:44:18.673Z,945.7126
2023-03-31T04:45:19.436Z,945.6289
2023-03-31T04:46:20.323Z,945.5696
2023-03-31T04:47:21.078Z,945.6048
2023-03-31T04:48:21.912Z,945.5948
2023-03-31T04:49:22.730Z,945.5548
2023-03-31T04:50:23.490Z,945.6171
2023-03-31T04:51:24.275Z,945.6481
2023-03-31T04:52:25.041Z,945.6152
2023-03-31T04:53:25.824Z,945.5770
2023-03-31T04:54:26.649Z,945.4852
2023-03-31T04:55:27.449Z,945.4274
2023-03-31T04:56:28.214Z,945.3841
2023-03-31T04:57:29.111Z,945.3233
2023-03-31T04:58:30.073Z,945.3104
2023-03-31T04:59:30.842Z,945.3107
2023-03-31T05:00:31.641Z,945.3389
2023-03-31T05:01:32.550Z,945.3845
2023-03-31T05:02:33.349Z,945.4504
2023-03-31T05:03:34.267Z,945.4441
2023-03-31T05:04:35.177Z,945.4141
2023-03-31T05:05:36.030Z,945.3522
2023-03-31T05:06:36.989Z,945.3745
2023-03-31T05:07:37.781Z,945.3922
2023-03-31T05:08:38.600Z,945.3011
2023-03-31T05:09:39.413Z,945.2493
2023-03-31T05:10:40.268Z,945.2085
2023-03-31T05:11:41.072Z,945.2111
2023-03-31T05:12:41.834Z,945.1363
2023-03-31T05:13:42.612Z,945.0759
2023-03-31T05:14:43.418Z,945.0704
2023-03-31T05:15:44.242Z,945.0745
2023-03-31T05:16:45.094Z,945.0892
2023-03-31T05:17:45.915Z,945.1000
2023-03-31T05:18:46.763Z,945.1067
2023-03-31T05:19:47.586Z,945.1578
2023-03-31T05:20:48.353Z,945.1770
2023-03-31T05:21:49.050Z,945.1696
2023-03-31T05:22:49.836Z,945.1748
2023-03-31T05:23:50.655Z,945.1663
2023-03-31T05:24:51.450Z,945.2056
2023-03-31T05:25:52.202Z,945.2418
2023-03-31T05:26:53.114Z,945.2482
2023-03-31T05:27:53.903Z,945.2526
2023-03-31T05:28:54.708Z,945.2996
2023-03-31T05:29:55.534Z,945.3215
2023-03-31T05:30:56.329Z,945.2593
2023-03-31T05:31:57.098Z,945.2437
2023-03-31T05:32:57.895Z,945.2567
2023-03-31T05:33:58.709Z,945.2496
2023-03-31T05:34:59.579Z,945.2355
2023-03-31T05:36:00.432Z,945.2903
2023-03-31T05:37:01.321Z,945.3563
2023-03-31T05:38:02.102Z,945.4518
2023-03-31T05:39:02.895Z,945.5134
2023-03-31T05:40:03.734Z,945.5093
2023-03-31T05:41:04.544Z,945.5226
2023-03-31T05:42:05.387Z,945.5289
2023-03-31T05:43:06.134Z,945.5818
2023-03-31T05:44:06.808Z,945.6685
2023-03-31T05:45:09.256Z,945.6930
2023-03-31T05:46:08.820Z,945.6608
2023-03-31T05:47:09.811Z,945.6585
2023-03-31T05:48:10.511Z,945.6567
2023-03-31T05:49:11.176Z,945.6789
2023-03-31T05:50:14.041Z,945.6996
2023-03-31T05:51:13.140Z,945.6708
2023-03-31T05:52:13.814Z,945.5793
2023-03-31T05:53:14.524Z,945.5466
2023-03-31T05:54:15.182Z,945.5000
2023-03-31T05:55:15.926Z,945.4037
2023-03-31T05:56:16.643Z,945.3889
2023-03-31T05:57:17.400Z,945.3885
2023-03-31T05:58:18.065Z,945.3715
2023-03-31T06:00:19.362Z,945.3519
2023-03-31T06:01:20.124Z,945.3318
2023-03-31T06:02:20.961Z,945.3492
2023-03-31T06:03:21.684Z,945.3537
2023-03-31T06:04:22.425Z,945.3226
2023-03-31T06:05:23.201Z,945.3337
2023-03-31T06:06:24.016Z,945.3419
2023-03-31T06:07:24.827Z,945.3052
2023-03-31T06:08:25.659Z,945.2833
2023-03-31T06:09:26.473Z,945.2966
2023-03-31T06:10:27.173Z,945.2848
2023-03-31T06:11:27.982Z,945.3567
2023-03-31T06:12:28.774Z,945.4274
2023-03-31T06:13:29.591Z,945.4463
2023-03-31T06:14:30.391Z,945.4374
2023-03-31T06:15:31.188Z,945.5352
2023-03-31T06:16:32.059Z,945.5281
2023-03-31T06:17:33.149Z,945.4830
2023-03-31T06:18:33.901Z,945.4456
2023-03-31T06:19:34.743Z,945.5941
2023-03-31T06:20:35.507Z,945.6478
2023-03-31T06:21:36.310Z,945.6048
2023-03-31T06:22:37.108Z,945.5500
2023-03-31T06:23:37.908Z,945.5219
2023-03-31T06:24:38.727Z,945.5578
2023-03-31T06:25:50.444Z,945.5656
2023-03-31T06:26:40.931Z,945.5568
2023-03-31T06:27:41.713Z,945.5807
2023-03-31T06:28:42.466Z,945.5926
2023-03-31T06:29:43.291Z,945.5874
2023-03-31T06:30:44.148Z,945.6182
2023-03-31T06:31:45.008Z,945.6407
2023-03-31T06:32:45.830Z,945.6626
2023-03-31T06:33:46.697Z,945.6689
2023-03-31T06:34:47.498Z,945.6678
2023-03-31T06:35:48.299Z,945.6608
2023-03-31T06:36:49.122Z,945.6456
2023-03-31T06:37:49.913Z,945.6774
2023-03-31T06:38:51.262Z,945.6456
2023-03-31T06:39:52.173Z,945.6003
2023-03-31T06:40:52.981Z,945.5530
2023-03-31T06:41:53.629Z,945.5204
2023-03-31T06:42:54.410Z,945.5381
2023-03-31T06:43:55.210Z,945.5782
2023-03-31T06:44:56.042Z,945.6663
2023-03-31T06:45:56.861Z,945.6611
2023-03-31T06:46:57.765Z,945.7163
2023-03-31T06:47:58.650Z,945.7159
2023-03-31T06:48:59.479Z,945.6270
2023-03-31T06:50:00.274Z,945.5748
2023-03-31T06:51:01.048Z,945.6008
2023-03-31T06:52:01.783Z,945.6044
2023-03-31T06:53:02.542Z,945.5967
2023-03-31T06:54:03.311Z,945.6141
2023-03-31T06:55:04.145Z,945.6492
2023-03-31T06:56:05.090Z,945.7648
2023-03-31T06:57:05.971Z,945.7697
2023-03-31T06:58:06.806Z,945.7244
2023-03-31T06:59:07.614Z,945.6752
2023-03-31T07:00:08.407Z,945.7493
2023-03-31T07:01:09.424Z,945.8485
2023-03-31T07:02:10.245Z,945.9659
2023-03-31T07:03:11.118Z,945.9785
2023-03-31T07:04:12.044Z,946.0082
2023-03-31T07:05:13.780Z,946.0211
2023-03-31T07:06:14.587Z,946.0896
2023-03-31T07:07:15.365Z,946.0471
2023-03-31T07:08:16.198Z,946.0300
2023-03-31T07:09:17.005Z,945.9715
2023-03-31T07:10:17.776Z,945.9711
2023-03-31T07:11:21.018Z,945.8700
2023-03-31T07:12:19.984Z,945.8588
2023-03-31T07:13:20.671Z,945.8600
2023-03-31T07:14:21.500Z,945.7645
2023-03-31T07:15:22.327Z,945.8811
2023-03-31T07:16:23.147Z,945.8533
2023-03-31T07:17:23.951Z,945.8834
2023-03-31T07:18:24.749Z,945.9355
2023-03-31T07:19:25.579Z,946.0403
2023-03-31T07:20:26.384Z,945.9933
2023-03-31T07:21:27.203Z,945.9659
2023-03-31T07:22:27.976Z,945.9611
2023-03-31T07:23:28.805Z,945.9459
2023-03-31T07:24:29.587Z,945.9044
2023-03-31T07:25:30.402Z,945.9182
2023-03-31T07:26:31.366Z,945.8463
2023-03-31T07:27:32.170Z,945.8463
2023-03-31T07:28:32.836Z,945.8400
2023-03-31T07:29:33.660Z,945.8229
2023-03-31T07:30:34.429Z,945.8229
2023-03-31T07:31:35.307Z,945.8671
2023-03-31T07:32:36.264Z,945.8526
2023-03-31T07:33:37.263Z,945.8641
2023-03-31T07:34:38.069Z,945.8737
2023-03-31T07:35:38.896Z,945.8555
2023-03-31T07:36:39.752Z,945.8996
2023-03-31T07:37:40.574Z,945.9522
2023-03-31T07:38:41.416Z,945.9322
2023-03-31T07:39:42.180Z,945.9081
2023-03-31T07:40:42.995Z,945.9248
2023-03-31T07:41:43.810Z,945.8878
2023-03-31T07:42:45.939Z,945.9696
2023-03-31T07:43:45.688Z,945.9319
2023-03-31T07:44:46.560Z,945.9574
2023-03-31T07:45:47.397Z,945.8948
2023-03-31T07:46:48.208Z,945.9011
2023-03-31T07:47:49.066Z,945.8119
2023-03-31T07:48:49.706Z,945.7719
2023-03-31T07:49:50.482Z,945.7215
2023-03-31T07:50:51.249Z,945.7045
2023-03-31T07:51:52.067Z,945.7378
2023-03-31T07:52:52.897Z,945.7081
2023-03-31T07:53:53.547Z,945.7285
2023-03-31T07:54:54.298Z,945.7830
2023-03-31T07:55:55.112Z,945.7281
2023-03-31T07:56:55.930Z,945.7393
2023-03-31T08:35:37.973Z,948.1096
2023-03-31T08:36:38.739Z,948.1163
2023-03-31T08:37:39.529Z,948.0541
2023-03-31T08:38:40.244Z,948.1059
2023-03-31T08:39:40.987Z,948.1660
2023-03-31T08:40:41.753Z,948.1667
2023-03-31T08:41:42.441Z,948.1255
2023-03-31T08:42:43.155Z,948.1315
2023-03-31T08:43:43.884Z,948.1230
2023-03-31T08:44:44.608Z,948.0533
2023-03-31T08:45:45.313Z,948.0930
2023-03-31T08:46:46.025Z,948.1189
2023-03-31T08:47:46.855Z,948.1585
2023-03-31T08:48:47.699Z,948.0571
2023-03-31T08:49:48.407Z,948.0352
2023-03-31T08:50:49.127Z,948.0352
2023-03-31T08:51:49.823Z,948.1322
2023-03-31T08:52:50.539Z,948.1574
2023-03-31T08:53:51.205Z,948.1119
2023-03-31T08:54:51.894Z,948.0885
2023-03-31T08:55:52.606Z,948.0804
2023-03-31T08:56:53.521Z,947.9463
2023-03-31T08:57:54.321Z,947.9556
2023-03-31T08:58:55.038Z,947.8652
2023-03-31T08:59:55.734Z,947.8145
2023-03-31T09:00:56.476Z,947.8248
2023-03-31T09:01:57.252Z,947.7967
2023-03-31T09:02:58.010Z,947.9500
2023-03-31T09:03:58.958Z,947.9330
2023-03-31T09:05:00.295Z,947.9015
2023-03-31T09:06:01.244Z,947.7593
2023-03-31T09:07:02.105Z,947.8148
2023-03-31T09:08:02.813Z,947.8778
2023-03-31T09:09:03.486Z,947.9330
2023-03-31T09:10:04.206Z,947.9529
2023-03-31T09:11:04.921Z,947.9337
2023-03-31T09:12:05.535Z,947.9078
2023-03-31T09:13:06.333Z,948.0107
2023-03-31T09:14:07.058Z,948.0240
2023-03-31T09:15:07.820Z,948.0159
2023-03-31T09:16:08.787Z,948.0200
2023-03-31T09:17:10.564Z,947.8881
2023-03-31T09:18:11.266Z,947.8503
2023-03-31T09:19:12.095Z,947.8522
2023-03-31T09:20:12.768Z,947.8641
2023-03-31T09:21:13.410Z,947.9033
2023-03-31T09:22:14.053Z,947.9463
2023-03-31T09:23:14.735Z,947.9222
2023-03-31T09:24:15.451Z,947.8333
2023-03-31T09:25:16.127Z,947.7337
2023-03-31T09:26:16.801Z,947.6085
2023-03-31T09:27:17.537Z,947.5082
2023-03-31T09:28:18.205Z,947.5544
2023-03-31T09:29:18.848Z,947.6241
2023-03-31T09:30:19.544Z,947.5574
2023-03-31T09:31:20.262Z,947.5867
2023-03-31T09:32:20.998Z,947.5704
2023-03-31T09:33:21.816Z,947.4323
2023-03-31T09:34:22.522Z,947.3963
2023-03-31T09:35:23.310Z,947.3567
2023-03-31T09:36:24.167Z,947.3252
2023-03-31T09:37:24.900Z,947.3415
2023-03-31T09:38:25.605Z,947.3526
2023-03-31T09:39:26.315Z,947.4581
2023-03-31T09:40:27.019Z,947.5634
2023-03-31T09:41:27.733Z,947.5700
2023-03-31T09:42:28.464Z,947.5593
2023-03-31T09:43:29.155Z,947.5048
2023-03-31T09:44:30.084Z,947.5489
2023-03-31T09:45:31.768Z,947.5693
2023-03-31T09:46:32.517Z,947.6822
2023-03-31T09:47:33.214Z,947.7400
2023-03-31T09:48:33.969Z,947.7537
2023-03-31T09:49:34.644Z,947.6774
2023-03-31T09:50:35.268Z,947.5822
2023-03-31T09:51:35.923Z,947.4226
2023-03-31T09:52:36.538Z,947.3478
2023-03-31T09:53:37.209Z,947.3111
2023-03-31T09:54:37.903Z,947.2870
2023-03-31T09:55:39.950Z,947.3519
2023-03-31T09:56:39.100Z,947.3088
2023-03-31T09:57:39.867Z,947.3333
2023-03-31T09:58:40.819Z,947.3678
2023-03-31T09:59:41.501Z,947.3637
2023-03-31T10:00:42.145Z,947.2907
2023-03-31T10:01:42.806Z,947.2704
2023-03-31T10:02:43.547Z,947.2903
2023-03-31T10:03:44.269Z,947.3422
2023-03-31T10:04:44.971Z,947.2759
2023-03-31T10:05:45.631Z,947.3256
2023-03-31T10:06:46.282Z,947.4363
2023-03-31T10:07:46.941Z,947.3811
2023-03-31T10:08:47.629Z,947.3755
2023-03-31T10:09:48.274Z,947.3511
2023-03-31T10:10:48.951Z,947.3352
2023-03-31T10:11:49.655Z,947.2359
2023-03-31T10:12:50.296Z,947.1959
2023-03-31T10:13:51.019Z,947.2018
2023-03-31T10:14:51.710Z,947.2756
2023-03-31T10:15:52.467Z,947.2511
2023-03-31T10:16:53.132Z,947.3297
2023-03-31T10:17:55.392Z,947.2330
2023-03-31T10:18:54.479Z,947.0354
2023-03-31T10:19:55.157Z,946.9696
2023-03-31T10:20:55.835Z,946.9270
2023-03-31T10:21:56.537Z,947.0048
2023-03-31T10:22:57.167Z,947.0067
2023-03-31T10:23:57.849Z,946.9248
2023-03-31T10:24:58.497Z,946.8441
2023-03-31T10:25:59.151Z,946.7489
2023-03-31T10:26:59.806Z,946.7781
2023-03-31T10:28:00.487Z,946.7870
2023-03-31T10:29:01.180Z,946.7404
2023-03-31T10:30:01.878Z,946.6630
2023-03-31T10:31:02.603Z,946.5759
2023-03-31T10:32:03.479Z,946.5974
2023-03-31T10:33:15.383Z,946.5252
2023-03-31T10:34:05.474Z,946.4841
2023-03-31T10:35:06.124Z,946.5807
2023-03-31T10:36:06.751Z,946.7119
2023-03-31T10:37:07.480Z,946.6581
2023-03-31T10:38:08.169Z,946.8159
2023-03-31T10:39:08.945Z,946.8037
2023-03-31T10:40:09.601Z,946.7144
2023-03-31T10:41:10.419Z,946.7363
2023-03-31T10:42:11.435Z,946.8430
2023-03-31T10:43:12.130Z,946.7689
2023-03-31T10:44:12.763Z,946.7178
2023-03-31T10:45:20.356Z,946.6396
2023-03-31T10:46:14.763Z,946.5836
2023-03-31T10:47:15.416Z,946.4904
2023-03-31T10:48:16.133Z,946.4008
2023-03-31T10:49:16.863Z,946.4989
2023-03-31T10:50:17.589Z,946.6748
2023-03-31T10:51:18.401Z,946.7848
2023-03-31T10:52:19.154Z,946.8607
2023-03-31T10:53:19.959Z,946.9252
2023-03-31T10:54:20.742Z,946.8134
2023-03-31T10:55:22.537Z,946.7200
2023-03-31T10:56:23.245Z,946.4526
2023-03-31T10:57:24.040Z,946.4692
2023-03-31T10:58:24.791Z,946.5215
2023-03-31T10:59:25.577Z,946.6378
2023-03-31T11:00:26.320Z,946.5840
2023-03-31T11:01:27.034Z,946.6807
2023-03-31T11:02:27.951Z,946.6715
2023-03-31T11:03:28.976Z,946.7426
2023-03-31T11:04:29.983Z,946.8356
2023-03-31T11:05:30.679Z,946.7307
2023-03-31T11:06:31.413Z,946.8578
2023-03-31T11:07:32.175Z,946.8485
2023-03-31T11:08:32.955Z,946.8363
2023-03-31T11:09:33.756Z,946.8578
2023-03-31T11:10:34.526Z,946.8937
2023-03-31T11:11:35.364Z,946.8963
2023-03-31T11:12:36.114Z,946.8674
2023-03-31T11:13:36.945Z,946.7792
2023-03-31T11:14:37.722Z,946.8326
2023-03-31T11:15:38.502Z,946.8193
2023-03-31T11:16:39.336Z,946.8389
2023-03-31T11:17:40.414Z,946.8104
2023-03-31T11:18:41.195Z,946.7933
2023-03-31T11:19:42.004Z,946.7493
2023-03-31T11:20:42.806Z,946.6744
2023-03-31T11:21:43.556Z,946.7033
2023-03-31T11:22:44.317Z,946.7285
2023-03-31T11:23:45.048Z,946.8185
2023-03-31T11:24:45.806Z,946.7052
2023-03-31T11:25:46.534Z,946.6470
2023-03-31T11:26:47.360Z,946.4930
2023-03-31T11:27:48.159Z,946.4663
2023-03-31T11:28:48.874Z,946.4341
2023-03-31T11:29:49.635Z,946.3337
2023-03-31T11:30:50.393Z,946.3852
2023-03-31T11:31:51.174Z,946.3326
2023-03-31T11:32:51.963Z,946.3582
2023-03-31T11:33:52.759Z,946.3804
2023-03-31T11:34:53.533Z,946.3715
2023-03-31T11:35:54.457Z,946.3585
2023-03-31T11:36:55.484Z,946.4252
2023-03-31T11:37:56.237Z,946.4522
2023-03-31T11:38:56.975Z,946.4237
2023-03-31T11:39:57.734Z,946.4211
2023-03-31T11:40:58.486Z,946.3763
2023-03-31T11:41:59.240Z,946.3589
2023-03-31T11:42:59.985Z,946.3615
2023-03-31T11:44:00.763Z,946.3267
2023-03-31T11:45:01.519Z,946.3533
2023-03-31T11:46:02.356Z,946.2937
2023-03-31T11:47:03.063Z,946.2633
2023-03-31T11:48:06.164Z,946.2656
2023-03-31T11:49:04.225Z,946.1788
2023-03-31T11:50:04.988Z,946.1633
2023-03-31T11:51:05.701Z,946.1266
2023-03-31T11:52:06.401Z,946.0804
2023-03-31T11:53:07.094Z,946.0718
2023-03-31T11:54:07.793Z,946.0848
2023-03-31T11:55:08.544Z,946.0122
2023-03-31T11:56:09.384Z,946.0359
2023-03-31T11:57:10.169Z,946.0718
2023-03-31T11:58:10.865Z,946.1904
2023-03-31T11:59:11.577Z,946.0615
2023-03-31T12:00:12.324Z,946.1619
2023-03-31T12:01:13.032Z,946.2126
2023-03-31T12:02:13.759Z,946.1552
2023-03-31T12:03:14.614Z,946.0770
2023-03-31T12:04:15.548Z,946.0915
2023-03-31T12:05:16.342Z,946.0989
2023-03-31T12:06:17.278Z,946.0452
2023-03-31T12:07:18.488Z,946.1385
2023-03-31T12:08:19.245Z,946.1474
2023-03-31T12:09:19.935Z,946.2181
2023-03-31T12:10:20.701Z,946.2170
2023-03-31T12:11:21.412Z,946.3522
2023-03-31T12:12:22.135Z,946.5848
2023-03-31T12:13:22.861Z,946.7285
2023-03-31T12:14:23.565Z,946.7441
2023-03-31T12:15:24.291Z,946.8715
2023-03-31T12:16:25.060Z,946.8815
2023-03-31T12:17:25.795Z,947.0156
2023-03-31T12:18:26.486Z,947.2219
2023-03-31T12:19:27.223Z,947.3748
2023-03-31T12:20:27.986Z,947.5211
2023-03-31T12:21:28.694Z,947.7052
2023-03-31T12:22:29.419Z,947.7500
2023-03-31T12:23:30.151Z,947.8463
2023-03-31T12:24:30.906Z,947.8655
2023-03-31T12:25:31.693Z,947.5129
2023-03-31T12:26:32.438Z,947.3359
2023-03-31T12:27:33.178Z,947.4044
2023-03-31T12:28:33.940Z,947.4763
2023-03-31T12:29:34.756Z,947.5707
2023-03-31T12:30:35.561Z,947.5881
2023-03-31T12:31:36.366Z,947.6200
2023-03-31T12:32:37.227Z,947.5781
2023-03-31T12:33:37.980Z,947.5566
2023-03-31T12:34:38.908Z,947.5233
2023-03-31T12:35:39.730Z,947.4230
2023-03-31T12:36:40.449Z,947.3845
2023-03-31T12:37:41.170Z,947.2833
2023-03-31T12:38:41.882Z,947.2911
2023-03-31T12:39:42.622Z,947.3352
2023-03-31T12:40:43.351Z,947.2978
2023-03-31T12:41:44.039Z,947.2752
2023-03-31T12:42:44.746Z,947.1445
2023-03-31T12:43:47.697Z,947.1400